createdAt,value
2022-10-22T00:00:10.736Z,13.60
2022-10-22T00:01:12.713Z,13.60
2022-10-22T00:02:19.787Z,13.60
2022-10-22T00:03:21.915Z,13.60
2022-10-22T00:04:23.698Z,13.60
2022-10-22T00:05:25.382Z,13.60
2022-10-22T00:06:27.103Z,13.60
2022-10-22T00:07:28.874Z,13.60
2022-10-22T00:08:31.393Z,13.60
2022-10-22T00:09:33.240Z,13.50
2022-10-22T00:10:36.940Z,13.50
2022-10-22T00:11:38.738Z,13.50
2022-10-22T00:12:40.505Z,13.50
2022-10-22T00:13:42.862Z,13.40
2022-10-22T00:14:44.705Z,13.50
2022-10-22T00:15:46.417Z,13.50
2022-10-22T00:16:48.095Z,13.50
2022-10-22T00:17:49.859Z,13.50
2022-10-22T00:18:51.691Z,13.50
2022-10-22T00:19:53.380Z,13.40
2022-10-22T00:20:55.137Z,13.40
2022-10-22T00:21:58.226Z,13.40
2022-10-22T00:22:59.918Z,13.40
2022-10-22T00:24:01.959Z,13.40
2022-10-22T00:25:03.996Z,13.40
2022-10-22T00:26:05.780Z,13.40
2022-10-22T00:27:09.587Z,13.40
2022-10-22T00:28:11.606Z,13.40
2022-10-22T00:29:13.394Z,13.40
2022-10-22T00:30:15.278Z,13.40
2022-10-22T00:31:19.137Z,13.40
2022-10-22T00:32:20.874Z,13.50
2022-10-22T00:33:22.713Z,13.40
2022-10-22T00:34:25.060Z,13.30
2022-10-22T00:35:26.799Z,13.30
2022-10-22T00:36:29.100Z,13.40
2022-10-22T00:37:31.191Z,13.40
2022-10-22T00:38:33.493Z,13.30
2022-10-22T00:39:35.195Z,13.30
2022-10-22T00:40:37.170Z,13.30
2022-10-22T00:41:39.711Z,13.30
2022-10-22T00:42:41.555Z,13.30
2022-10-22T00:44:01.976Z,13.20
2022-10-22T00:45:09.536Z,13.20
2022-10-22T00:46:11.232Z,13.30
2022-10-22T00:47:13.849Z,13.20
2022-10-22T00:48:28.403Z,13.30
2022-10-22T00:49:30.061Z,13.20
2022-10-22T00:50:43.672Z,13.20
2022-10-22T00:51:45.587Z,13.20
2022-10-22T00:52:47.681Z,13.20
2022-10-22T00:53:55.960Z,13.10
2022-10-22T00:54:58.227Z,13.20
2022-10-22T00:56:00.313Z,13.20
2022-10-22T00:57:02.124Z,13.20
2022-10-22T00:58:04.086Z,13.10
2022-10-22T00:59:06.383Z,13.10
2022-10-22T01:00:08.902Z,13.20
2022-10-22T01:01:16.780Z,13.10
2022-10-22T01:02:18.577Z,13.10
2022-10-22T01:03:20.754Z,13.10
2022-10-22T01:04:22.429Z,13.10
2022-10-22T01:05:27.995Z,13.20
2022-10-22T01:06:32.766Z,13.10
2022-10-22T01:07:40.152Z,13.10
2022-10-22T01:08:47.289Z,13.10
2022-10-22T01:10:15.261Z,13.10
2022-10-22T01:11:55.762Z,13.10
2022-10-22T01:13:36.880Z,13.10
2022-10-22T01:15:03.511Z,13.10
2022-10-22T01:16:10.329Z,13.10
2022-10-22T01:17:30.711Z,13.10
2022-10-22T01:19:06.457Z,13.20
2022-10-22T01:20:25.368Z,13.20
2022-10-22T01:21:45.358Z,13.20
2022-10-22T01:22:59.280Z,13.20
2022-10-22T01:24:09.822Z,13.10
2022-10-22T01:25:23.375Z,13.20
2022-10-22T01:26:41.925Z,13.10
2022-10-22T01:28:12.847Z,13.20
2022-10-22T01:29:22.011Z,13.20
2022-10-22T01:30:25.107Z,13.20
2022-10-22T01:31:32.553Z,13.20
2022-10-22T01:32:45.712Z,13.20
2022-10-22T01:33:49.158Z,13.20
2022-10-22T01:35:04.194Z,13.20
2022-10-22T01:36:06.722Z,13.20
2022-10-22T01:37:10.467Z,13.20
2022-10-22T01:38:16.587Z,13.20
2022-10-22T01:39:19.686Z,13.20
2022-10-22T01:40:23.159Z,13.20
2022-10-22T01:41:25.052Z,13.30
2022-10-22T01:42:26.875Z,13.30
2022-10-22T01:43:28.527Z,13.30
2022-10-22T01:44:31.487Z,13.30
2022-10-22T01:45:48.461Z,13.30
2022-10-22T01:46:53.257Z,13.30
2022-10-22T01:48:00.891Z,13.40
2022-10-22T01:49:23.553Z,13.40
2022-10-22T01:50:43.135Z,13.40
2022-10-22T01:52:13.158Z,13.30
2022-10-22T01:53:54.886Z,13.30
2022-10-22T01:55:14.429Z,13.30
2022-10-22T01:56:45.142Z,13.30
2022-10-22T01:58:13.340Z,13.30
2022-10-22T01:59:36.822Z,13.30
2022-10-22T02:00:43.985Z,13.30
2022-10-22T02:02:00.798Z,13.20
2022-10-22T02:03:18.587Z,13.20
2022-10-22T02:04:43.064Z,13.10
2022-10-22T02:05:55.621Z,13.10
2022-10-22T02:07:02.240Z,13.10
2022-10-22T02:08:11.001Z,13.10
2022-10-22T02:09:15.852Z,13.10
2022-10-22T02:10:18.832Z,13.10
2022-10-22T02:11:20.775Z,13.10
2022-10-22T02:12:23.871Z,13.00
2022-10-22T02:13:30.553Z,13.00
2022-10-22T02:14:34.140Z,13.00
2022-10-22T02:15:38.599Z,13.00
2022-10-22T02:16:44.810Z,13.00
2022-10-22T02:17:47.664Z,13.00
2022-10-22T02:18:53.757Z,13.00
2022-10-22T02:20:00.587Z,13.00
2022-10-22T02:21:02.799Z,13.00
2022-10-22T02:22:05.543Z,13.00
2022-10-22T02:23:08.499Z,12.90
2022-10-22T02:24:10.541Z,12.90
2022-10-22T02:25:12.646Z,12.90
2022-10-22T02:26:23.602Z,12.90
2022-10-22T02:27:33.329Z,12.90
2022-10-22T02:29:08.654Z,12.90
2022-10-22T02:30:14.022Z,12.90
2022-10-22T02:31:21.620Z,12.90
2022-10-22T02:32:26.667Z,12.90
2022-10-22T02:33:33.049Z,12.90
2022-10-22T02:34:34.991Z,12.80
2022-10-22T02:35:39.826Z,12.90
2022-10-22T02:36:46.738Z,12.80
2022-10-22T02:37:53.121Z,12.80
2022-10-22T02:38:55.557Z,12.80
2022-10-22T02:39:57.334Z,12.80
2022-10-22T02:40:59.411Z,12.80
2022-10-22T02:42:02.578Z,12.80
2022-10-22T02:43:05.959Z,12.80
2022-10-22T02:44:10.438Z,12.80
2022-10-22T02:45:12.127Z,12.70
2022-10-22T02:46:13.999Z,12.80
2022-10-22T02:47:15.730Z,12.80
2022-10-22T02:48:17.509Z,12.80
2022-10-22T02:49:19.333Z,12.80
2022-10-22T02:50:21.118Z,12.80
2022-10-22T02:51:22.975Z,12.80
2022-10-22T02:52:24.722Z,12.80
2022-10-22T02:53:26.384Z,12.80
2022-10-22T02:54:28.050Z,12.80
2022-10-22T02:55:29.776Z,12.80
2022-10-22T02:56:31.817Z,12.80
2022-10-22T02:57:33.689Z,12.80
2022-10-22T02:58:35.446Z,12.80
2022-10-22T02:59:37.140Z,12.80
2022-10-22T03:00:39.911Z,12.80
2022-10-22T03:01:41.621Z,12.80
2022-10-22T03:02:43.326Z,12.80
2022-10-22T03:03:45.041Z,12.80
2022-10-22T03:04:46.882Z,12.80
2022-10-22T03:05:50.264Z,12.80
2022-10-22T03:06:51.979Z,12.80
2022-10-22T03:07:53.672Z,12.80
2022-10-22T03:08:55.404Z,12.90
2022-10-22T03:09:57.104Z,12.80
2022-10-22T03:10:58.820Z,12.80
2022-10-22T03:12:00.508Z,12.80
2022-10-22T03:13:02.277Z,12.80
2022-10-22T03:14:03.987Z,12.80
2022-10-22T03:15:06.117Z,12.80
2022-10-22T03:16:08.008Z,12.80
2022-10-22T03:17:10.407Z,12.80
2022-10-22T03:18:12.126Z,12.80
2022-10-22T03:19:14.150Z,12.80
2022-10-22T03:20:15.932Z,12.90
2022-10-22T03:21:41.260Z,12.90
2022-10-22T03:22:43.589Z,12.90
2022-10-22T03:23:45.455Z,12.80
2022-10-22T03:24:50.838Z,12.90
2022-10-22T03:25:52.623Z,12.90
2022-10-22T03:26:54.667Z,12.90
2022-10-22T03:28:01.697Z,12.90
2022-10-22T03:29:03.553Z,12.90
2022-10-22T03:30:06.191Z,12.90
2022-10-22T03:31:08.426Z,12.90
2022-10-22T03:32:10.124Z,12.90
2022-10-22T03:33:11.891Z,12.90
2022-10-22T03:34:13.543Z,12.90
2022-10-22T03:35:15.321Z,13.00
2022-10-22T03:36:17.231Z,12.90
2022-10-22T03:37:19.390Z,12.90
2022-10-22T03:38:21.179Z,13.00
2022-10-22T03:39:23.654Z,12.90
2022-10-22T03:40:25.502Z,12.90
2022-10-22T03:41:28.108Z,12.90
2022-10-22T03:42:29.827Z,12.90
2022-10-22T03:43:31.557Z,13.00
2022-10-22T03:44:33.614Z,12.90
2022-10-22T03:45:35.320Z,12.90
2022-10-22T03:46:37.046Z,12.90
2022-10-22T03:47:39.113Z,12.90
2022-10-22T03:48:40.980Z,12.90
2022-10-22T03:49:42.800Z,12.90
2022-10-22T03:50:44.522Z,12.90
2022-10-22T03:51:46.284Z,12.90
2022-10-22T03:52:48.019Z,12.90
2022-10-22T03:53:49.708Z,12.90
2022-10-22T03:54:51.487Z,12.90
2022-10-22T03:55:53.172Z,12.90
2022-10-22T03:56:54.860Z,12.90
2022-10-22T03:57:56.527Z,12.90
2022-10-22T03:58:59.746Z,12.90
2022-10-22T04:00:01.617Z,12.90
2022-10-22T04:01:11.207Z,12.90
2022-10-22T04:02:14.002Z,12.90
2022-10-22T04:03:15.765Z,12.90
2022-10-22T04:04:17.423Z,12.90
2022-10-22T04:05:19.154Z,12.90
2022-10-22T04:06:20.890Z,12.80
2022-10-22T04:07:22.771Z,12.80
2022-10-22T04:08:24.443Z,12.80
2022-10-22T04:09:26.083Z,12.80
2022-10-22T04:10:27.760Z,12.80
2022-10-22T04:11:29.502Z,12.70
2022-10-22T04:12:31.847Z,12.80
2022-10-22T04:13:33.712Z,12.70
2022-10-22T04:14:35.744Z,12.70
2022-10-22T04:15:37.494Z,12.80
2022-10-22T04:16:40.721Z,12.70
2022-10-22T04:17:42.801Z,12.80
2022-10-22T04:18:46.885Z,12.80
2022-10-22T04:19:48.546Z,12.70
2022-10-22T04:20:52.480Z,12.70
2022-10-22T04:21:54.316Z,12.70
2022-10-22T04:22:56.534Z,12.80
2022-10-22T04:23:58.510Z,12.70
2022-10-22T04:25:00.326Z,12.70
2022-10-22T04:26:06.734Z,12.60
2022-10-22T04:27:08.377Z,12.70
2022-10-22T04:28:10.241Z,12.70
2022-10-22T04:29:15.893Z,12.60
2022-10-22T04:30:18.262Z,12.60
2022-10-22T04:31:23.066Z,12.60
2022-10-22T04:32:26.066Z,12.60
2022-10-22T04:33:27.750Z,12.50
2022-10-22T04:34:29.623Z,12.50
2022-10-22T04:35:31.312Z,12.50
2022-10-22T04:36:33.955Z,12.50
2022-10-22T04:37:35.610Z,12.50
2022-10-22T04:38:38.392Z,12.50
2022-10-22T04:39:40.132Z,12.50
2022-10-22T04:40:41.973Z,12.50
2022-10-22T04:41:43.635Z,12.40
2022-10-22T04:42:45.359Z,12.40
2022-10-22T04:43:47.407Z,12.40
2022-10-22T04:44:49.285Z,12.40
2022-10-22T04:45:51.022Z,12.40
2022-10-22T04:46:52.742Z,12.40
2022-10-22T04:47:54.402Z,12.40
2022-10-22T04:48:56.142Z,12.30
2022-10-22T04:49:57.834Z,12.30
2022-10-22T04:51:00.742Z,12.30
2022-10-22T04:52:02.461Z,12.30
2022-10-22T04:53:04.308Z,12.30
2022-10-22T04:54:06.088Z,12.30
2022-10-22T04:55:08.160Z,12.20
2022-10-22T04:56:12.813Z,12.20
2022-10-22T04:57:14.589Z,12.20
2022-10-22T04:58:16.288Z,12.20
2022-10-22T04:59:17.995Z,12.20
2022-10-22T05:00:19.784Z,12.20
2022-10-22T05:01:26.114Z,12.20
2022-10-22T05:02:27.875Z,12.20
2022-10-22T05:03:29.530Z,12.20
2022-10-22T05:04:31.288Z,12.20
2022-10-22T05:05:33.151Z,12.10
2022-10-22T05:06:36.646Z,12.10
2022-10-22T05:07:38.653Z,12.10
2022-10-22T05:08:41.091Z,12.10
2022-10-22T05:09:42.763Z,12.10
2022-10-22T05:10:44.502Z,12.10
2022-10-22T05:11:48.677Z,12.10
2022-10-22T05:12:51.487Z,12.10
2022-10-22T05:13:53.473Z,12.10
2022-10-22T05:14:55.985Z,12.20
2022-10-22T05:16:02.142Z,12.10
2022-10-22T05:17:03.833Z,12.10
2022-10-22T05:18:05.593Z,12.10
2022-10-22T05:19:08.185Z,12.10
2022-10-22T05:20:10.711Z,12.00
2022-10-22T05:21:17.894Z,12.10
2022-10-22T05:22:19.582Z,12.10
2022-10-22T05:23:21.286Z,12.10
2022-10-22T05:24:24.319Z,12.10
2022-10-22T05:25:25.995Z,12.10
2022-10-22T05:26:29.070Z,12.10
2022-10-22T05:27:30.784Z,12.10
2022-10-22T05:28:33.567Z,12.10
2022-10-22T05:29:35.328Z,12.10
2022-10-22T05:30:37.002Z,12.10
2022-10-22T05:31:38.990Z,12.10
2022-10-22T05:32:40.667Z,12.10
2022-10-22T05:33:43.389Z,12.10
2022-10-22T05:34:45.112Z,12.00
2022-10-22T05:35:46.951Z,12.00
2022-10-22T05:36:48.709Z,12.10
2022-10-22T05:37:50.399Z,12.10
2022-10-22T05:38:52.502Z,12.10
2022-10-22T05:40:01.832Z,12.10
2022-10-22T05:41:19.663Z,12.10
2022-10-22T05:42:21.327Z,12.10
2022-10-22T05:43:23.028Z,12.10
2022-10-22T05:44:24.748Z,12.10
2022-10-22T05:45:26.413Z,12.10
2022-10-22T05:46:30.257Z,12.10
2022-10-22T05:47:31.971Z,12.10
2022-10-22T05:48:33.909Z,12.10
2022-10-22T05:49:35.744Z,12.10
2022-10-22T05:50:38.582Z,12.10
2022-10-22T05:51:40.265Z,12.10
2022-10-22T05:52:42.347Z,12.10
2022-10-22T05:53:45.634Z,12.10
2022-10-22T05:54:47.319Z,12.10
2022-10-22T05:55:49.062Z,12.10
2022-10-22T05:56:50.786Z,12.20
2022-10-22T05:57:52.471Z,12.20
2022-10-22T05:58:54.220Z,12.20
2022-10-22T05:59:55.885Z,12.20
2022-10-22T06:01:13.484Z,12.20
2022-10-22T06:02:15.224Z,12.20
2022-10-22T06:03:16.929Z,12.20
2022-10-22T06:04:18.745Z,12.20
2022-10-22T06:05:20.460Z,12.20
2022-10-22T06:06:31.114Z,12.20
2022-10-22T06:07:33.456Z,12.20
2022-10-22T06:08:35.287Z,12.20
2022-10-22T06:10:44.419Z,12.20
2022-10-22T06:11:47.023Z,12.20
2022-10-22T06:12:49.532Z,12.20
2022-10-22T06:13:51.894Z,12.20
2022-10-22T06:14:53.730Z,12.20
2022-10-22T06:15:55.697Z,12.20
2022-10-22T06:16:59.632Z,12.20
2022-10-22T06:18:01.429Z,12.20
2022-10-22T06:19:03.783Z,12.30
2022-10-22T06:21:15.409Z,12.30
2022-10-22T06:22:17.107Z,12.30
2022-10-22T06:23:18.785Z,12.30
2022-10-22T06:24:20.464Z,12.30
2022-10-22T06:25:22.163Z,12.30
2022-10-22T06:26:24.023Z,12.30
2022-10-22T06:27:25.776Z,12.20
2022-10-22T06:28:28.446Z,12.20
2022-10-22T06:29:30.110Z,12.30
2022-10-22T06:30:31.770Z,12.30
2022-10-22T06:31:36.826Z,12.30
2022-10-22T06:32:39.095Z,12.30
2022-10-22T06:33:44.021Z,12.30
2022-10-22T06:34:46.278Z,12.30
2022-10-22T06:35:48.558Z,12.30
2022-10-22T06:36:51.610Z,12.40
2022-10-22T06:37:53.392Z,12.30
2022-10-22T06:38:55.914Z,12.40
2022-10-22T06:39:57.595Z,12.40
2022-10-22T06:41:04.572Z,12.40
2022-10-22T06:42:06.393Z,12.40
2022-10-22T06:43:08.163Z,12.40
2022-10-22T06:44:14.698Z,12.40
2022-10-22T06:45:16.579Z,12.40
2022-10-22T06:46:22.289Z,12.40
2022-10-22T06:47:23.965Z,12.40
2022-10-22T06:48:25.708Z,12.40
2022-10-22T06:49:27.385Z,12.40
2022-10-22T06:50:29.121Z,12.50
2022-10-22T06:51:30.841Z,12.50
2022-10-22T06:52:32.557Z,12.50
2022-10-22T06:53:35.350Z,12.50
2022-10-22T06:54:37.121Z,12.50
2022-10-22T06:55:38.794Z,12.50
2022-10-22T06:56:40.623Z,12.60
2022-10-22T06:57:42.644Z,12.60
2022-10-22T06:58:48.000Z,12.60
2022-10-22T06:59:49.667Z,12.60
2022-10-22T07:01:01.705Z,12.60
2022-10-22T07:02:03.436Z,12.60
2022-10-22T07:03:05.078Z,12.60
2022-10-22T07:04:06.941Z,12.70
2022-10-22T07:05:09.180Z,12.70
2022-10-22T07:06:13.526Z,12.70
2022-10-22T07:07:15.489Z,12.70
2022-10-22T07:08:17.145Z,12.70
2022-10-22T07:10:28.476Z,12.70
2022-10-22T07:11:39.774Z,12.80
2022-10-22T07:12:41.736Z,12.80
2022-10-22T07:13:44.178Z,12.80
2022-10-22T07:14:45.835Z,12.90
2022-10-22T07:15:54.600Z,12.80
2022-10-22T07:16:56.419Z,12.90
2022-10-22T07:17:58.090Z,12.90
2022-10-22T07:19:03.943Z,12.90
2022-10-22T07:20:06.288Z,12.90
2022-10-22T07:21:09.235Z,13.00
2022-10-22T07:22:10.943Z,13.00
2022-10-22T07:23:12.611Z,13.00
2022-10-22T07:24:14.333Z,13.00
2022-10-22T07:25:16.127Z,13.00
2022-10-22T07:26:20.380Z,13.00
2022-10-22T07:27:22.083Z,13.10
2022-10-22T07:28:24.052Z,13.10
2022-10-22T07:29:25.978Z,13.10
2022-10-22T07:30:27.723Z,13.10
2022-10-22T07:31:30.337Z,13.10
2022-10-22T07:32:32.040Z,13.10
2022-10-22T07:33:33.796Z,13.20
2022-10-22T07:34:36.289Z,13.20
2022-10-22T07:35:40.501Z,13.20
2022-10-22T07:36:42.323Z,13.20
2022-10-22T07:37:44.130Z,13.20
2022-10-22T07:38:48.080Z,13.20
2022-10-22T07:39:49.794Z,13.20
2022-10-22T07:40:51.579Z,13.20
2022-10-22T07:41:53.541Z,13.30
2022-10-22T07:42:55.282Z,13.30
2022-10-22T07:43:57.923Z,13.30
2022-10-22T07:44:59.593Z,13.30
2022-10-22T07:46:02.779Z,13.30
2022-10-22T07:47:04.484Z,13.30
2022-10-22T07:48:06.646Z,13.30
2022-10-22T07:49:08.502Z,13.30
2022-10-22T07:50:10.455Z,13.40
2022-10-22T07:51:12.400Z,13.40
2022-10-22T07:52:14.058Z,13.40
2022-10-22T07:53:15.709Z,13.40
2022-10-22T07:54:19.432Z,13.40
2022-10-22T07:55:21.169Z,13.40
2022-10-22T07:56:22.918Z,13.40
2022-10-22T07:57:24.657Z,13.40
2022-10-22T07:58:26.409Z,13.40
2022-10-22T07:59:28.142Z,13.40
2022-10-22T08:00:30.056Z,13.50
2022-10-22T08:01:31.886Z,13.50
2022-10-22T08:02:33.633Z,13.50
2022-10-22T08:03:35.602Z,13.50
2022-10-22T08:04:38.298Z,13.50
2022-10-22T08:05:40.325Z,13.60
2022-10-22T08:06:45.803Z,13.60
2022-10-22T08:07:49.202Z,13.60
2022-10-22T08:08:50.976Z,13.60
2022-10-22T08:09:52.757Z,13.60
2022-10-22T08:10:56.549Z,13.60
2022-10-22T08:11:58.284Z,13.60
2022-10-22T08:12:59.989Z,13.70
2022-10-22T08:14:01.719Z,13.70
2022-10-22T08:15:04.935Z,13.70
2022-10-22T08:16:06.800Z,13.60
2022-10-22T08:17:08.567Z,13.70
2022-10-22T08:18:10.443Z,13.80
2022-10-22T08:19:13.486Z,13.80
2022-10-22T08:20:15.156Z,13.80
2022-10-22T08:21:17.479Z,13.80
2022-10-22T08:22:19.282Z,13.80
2022-10-22T08:23:25.865Z,13.80
2022-10-22T08:24:29.452Z,13.90
2022-10-22T08:25:31.256Z,13.90
2022-10-22T08:26:33.074Z,13.90
2022-10-22T08:27:34.778Z,13.90
2022-10-22T08:28:37.256Z,13.90
2022-10-22T08:29:40.132Z,13.90
2022-10-22T08:30:42.741Z,14.00
2022-10-22T08:31:44.438Z,14.00
2022-10-22T08:32:46.231Z,14.00
2022-10-22T08:33:47.914Z,14.10
2022-10-22T08:34:49.873Z,14.10
2022-10-22T08:35:52.382Z,14.10
2022-10-22T08:36:54.079Z,14.10
2022-10-22T08:37:55.758Z,14.10
2022-10-22T08:38:57.444Z,14.10
2022-10-22T08:39:59.102Z,14.10
2022-10-22T08:41:13.198Z,14.10
2022-10-22T08:42:30.367Z,14.10
2022-10-22T08:43:41.153Z,14.10
2022-10-22T08:44:56.693Z,14.10
2022-10-22T08:46:30.759Z,14.10
2022-10-22T08:47:42.134Z,14.10
2022-10-22T08:48:50.855Z,14.10
2022-10-22T08:49:53.772Z,14.20
2022-10-22T08:50:57.634Z,14.20
2022-10-22T08:52:00.186Z,14.20
2022-10-22T08:53:07.970Z,14.20
2022-10-22T08:54:21.699Z,14.20
2022-10-22T08:55:25.060Z,14.30
2022-10-22T08:56:27.143Z,14.30
2022-10-22T08:58:03.372Z,14.30
2022-10-22T08:59:33.833Z,14.30
2022-10-22T09:00:44.219Z,14.40
2022-10-22T09:01:48.854Z,14.40
2022-10-22T09:03:12.557Z,14.40
2022-10-22T09:04:25.957Z,14.50
2022-10-22T09:05:48.191Z,14.50
2022-10-22T09:06:53.478Z,14.50
2022-10-22T09:07:57.184Z,14.50
2022-10-22T09:09:01.142Z,14.60
2022-10-22T09:10:04.090Z,14.60
2022-10-22T09:11:30.255Z,14.60
2022-10-22T09:12:32.064Z,14.60
2022-10-22T09:13:33.860Z,14.70
2022-10-22T09:14:35.985Z,14.70
2022-10-22T09:15:38.543Z,14.70
2022-10-22T09:17:03.395Z,14.70
2022-10-22T09:18:26.836Z,14.80
2022-10-22T09:19:46.967Z,14.80
2022-10-22T09:20:53.155Z,14.80
2022-10-22T09:22:27.476Z,14.90
2022-10-22T09:23:48.900Z,15.00
2022-10-22T09:25:21.161Z,15.10
2022-10-22T09:26:22.819Z,15.20
2022-10-22T09:27:30.109Z,15.20
2022-10-22T09:28:31.863Z,15.30
2022-10-22T09:29:34.667Z,15.30
2022-10-22T09:30:39.978Z,15.30
2022-10-22T09:31:41.660Z,15.40
2022-10-22T09:32:43.694Z,15.50
2022-10-22T09:33:51.932Z,15.50
2022-10-22T09:34:58.269Z,15.60
2022-10-22T09:36:05.641Z,15.60
2022-10-22T09:37:10.147Z,15.70
2022-10-22T09:38:14.519Z,15.70
2022-10-22T09:39:26.242Z,15.80
2022-10-22T09:40:27.933Z,15.80
2022-10-22T09:41:30.886Z,15.80
2022-10-22T09:42:34.875Z,15.90
2022-10-22T09:43:37.000Z,15.90
2022-10-22T09:44:38.848Z,16.00
2022-10-22T09:45:41.380Z,16.00
2022-10-22T09:46:45.582Z,16.00
2022-10-22T09:48:01.482Z,16.10
2022-10-22T09:49:09.929Z,16.10
2022-10-22T09:50:20.902Z,16.20
2022-10-22T09:51:25.444Z,16.20
2022-10-22T09:52:30.984Z,16.10
2022-10-22T09:53:57.266Z,16.20
2022-10-22T09:55:02.634Z,16.20
2022-10-22T09:56:10.547Z,16.30
2022-10-22T09:57:25.321Z,16.30
2022-10-22T09:58:27.998Z,16.30
2022-10-22T09:59:32.857Z,16.30
2022-10-22T10:00:34.555Z,16.30
2022-10-22T10:01:38.603Z,16.30
2022-10-22T10:02:43.984Z,16.30
2022-10-22T10:03:47.633Z,16.40
2022-10-22T10:04:50.988Z,16.40
2022-10-22T10:06:01.405Z,16.40
2022-10-22T10:07:35.732Z,16.40
2022-10-22T10:08:37.584Z,16.40
2022-10-22T10:09:39.647Z,16.40
2022-10-22T10:10:50.244Z,16.50
2022-10-22T10:12:19.293Z,16.50
2022-10-22T10:13:26.060Z,16.50
2022-10-22T10:14:57.132Z,16.50
2022-10-22T10:16:23.596Z,16.60
2022-10-22T10:18:00.962Z,16.60
2022-10-22T10:19:27.264Z,16.70
2022-10-22T10:20:46.833Z,16.80
2022-10-22T10:21:51.958Z,16.80
2022-10-22T10:23:22.997Z,16.80
2022-10-22T10:24:48.089Z,16.80
2022-10-22T10:26:16.065Z,16.80
2022-10-22T10:27:36.376Z,16.80
2022-10-22T10:28:44.276Z,16.80
2022-10-22T10:30:03.429Z,16.80
2022-10-22T10:31:29.643Z,16.80
2022-10-22T10:32:57.235Z,16.80
2022-10-22T10:34:13.913Z,16.80
2022-10-22T10:35:23.839Z,16.80
2022-10-22T10:36:44.884Z,16.90
2022-10-22T10:37:50.887Z,16.90
2022-10-22T10:39:02.738Z,16.90
2022-10-22T10:40:28.676Z,16.90
2022-10-22T10:41:46.887Z,16.90
2022-10-22T10:43:15.265Z,17.00
2022-10-22T10:44:16.929Z,17.00
2022-10-22T10:45:42.783Z,17.00
2022-10-22T10:46:59.889Z,17.00
2022-10-22T10:48:09.366Z,17.10
2022-10-22T10:49:25.879Z,17.10
2022-10-22T10:50:49.534Z,17.20
2022-10-22T10:51:59.529Z,17.20
2022-10-22T10:53:10.118Z,17.30
2022-10-22T10:54:11.751Z,17.30
2022-10-22T10:55:29.933Z,17.40
2022-10-22T10:56:41.235Z,17.40
2022-10-22T10:57:53.998Z,17.50
2022-10-22T10:59:17.602Z,17.50
2022-10-22T11:00:20.969Z,17.60
2022-10-22T11:01:48.960Z,17.60
2022-10-22T11:03:09.370Z,17.70
2022-10-22T11:04:41.186Z,17.70
2022-10-22T11:05:50.385Z,17.70
2022-10-22T11:07:10.733Z,17.80
2022-10-22T11:08:13.265Z,17.80
2022-10-22T11:09:32.234Z,17.80
2022-10-22T11:10:50.204Z,17.90
2022-10-22T11:11:57.103Z,17.90
2022-10-22T11:13:40.174Z,17.90
2022-10-22T11:15:11.317Z,18.00
2022-10-22T11:16:36.839Z,18.00
2022-10-22T11:17:45.852Z,18.00
2022-10-22T11:19:11.287Z,18.00
2022-10-22T11:20:32.159Z,18.00
2022-10-22T11:22:14.920Z,18.00
2022-10-22T11:23:24.678Z,18.10
2022-10-22T11:24:39.451Z,18.10
2022-10-22T11:25:47.860Z,18.10
2022-10-22T11:27:22.014Z,18.10
2022-10-22T11:28:37.636Z,18.20
2022-10-22T11:29:44.323Z,18.20
2022-10-22T11:30:52.095Z,18.20
2022-10-22T11:31:54.973Z,18.30
2022-10-22T11:33:01.227Z,18.20
2022-10-22T11:34:32.815Z,18.20
2022-10-22T11:35:39.910Z,18.20
2022-10-22T11:36:42.551Z,18.30
2022-10-22T11:37:47.119Z,18.30
2022-10-22T11:38:49.303Z,18.40
2022-10-22T11:39:56.953Z,18.50
2022-10-22T11:41:02.257Z,18.60
2022-10-22T11:42:06.095Z,18.70
2022-10-22T11:43:25.796Z,18.90
2022-10-22T11:44:30.218Z,19.00
2022-10-22T11:45:38.000Z,19.20
2022-10-22T11:46:45.644Z,19.30
2022-10-22T11:48:07.734Z,19.40
2022-10-22T11:49:15.577Z,19.60
2022-10-22T11:50:17.351Z,19.80
2022-10-22T11:51:36.377Z,19.90
2022-10-22T11:52:41.722Z,20.00
2022-10-22T11:53:43.522Z,20.20
2022-10-22T11:54:45.248Z,20.20
2022-10-22T11:55:52.519Z,20.40
2022-10-22T11:57:16.626Z,20.50
2022-10-22T11:58:43.841Z,20.60
2022-10-22T11:59:52.901Z,20.70
2022-10-22T12:01:15.801Z,20.80
2022-10-22T12:02:41.830Z,20.80
2022-10-22T12:03:53.797Z,20.80
2022-10-22T12:05:16.344Z,20.80
2022-10-22T12:06:23.397Z,20.80
2022-10-22T12:07:47.746Z,20.80
2022-10-22T12:08:49.539Z,20.70
2022-10-22T12:11:09.763Z,20.50
2022-10-22T12:12:15.848Z,20.40
2022-10-22T12:13:31.268Z,20.40
2022-10-22T12:14:50.631Z,20.30
2022-10-22T12:15:56.470Z,20.30
2022-10-22T12:17:07.762Z,20.20
2022-10-22T12:19:27.187Z,20.20
2022-10-22T12:20:29.954Z,20.20
2022-10-22T12:21:33.928Z,20.10
2022-10-22T12:22:37.738Z,20.10
2022-10-22T12:23:39.749Z,20.10
2022-10-22T12:24:47.315Z,20.10
2022-10-22T12:25:49.024Z,20.10
2022-10-22T12:26:53.066Z,20.10
2022-10-22T12:27:59.828Z,20.00
2022-10-22T12:29:06.341Z,20.00
2022-10-22T12:30:28.219Z,20.00
2022-10-22T12:31:37.367Z,20.00
2022-10-22T12:32:43.174Z,19.90
2022-10-22T12:33:44.974Z,19.90
2022-10-22T12:34:52.540Z,19.90
2022-10-22T12:35:57.503Z,20.00
2022-10-22T12:36:59.176Z,19.90
2022-10-22T12:38:05.213Z,19.80
2022-10-22T12:39:14.383Z,19.80
2022-10-22T12:40:33.131Z,19.80
2022-10-22T12:41:37.483Z,19.80
2022-10-22T12:42:40.083Z,19.80
2022-10-22T12:43:41.794Z,19.80
2022-10-22T12:44:44.859Z,19.80
2022-10-22T12:45:49.340Z,19.80
2022-10-22T12:46:54.444Z,19.70
2022-10-22T12:48:05.310Z,19.70
2022-10-22T12:49:15.330Z,19.70
2022-10-22T12:50:23.663Z,19.70
2022-10-22T12:51:25.780Z,19.60
2022-10-22T12:52:27.704Z,19.60
2022-10-22T12:53:37.637Z,19.60
2022-10-22T12:54:40.636Z,19.60
2022-10-22T12:55:42.452Z,19.60
2022-10-22T12:56:46.811Z,19.60
2022-10-22T12:57:49.398Z,19.50
2022-10-22T12:59:03.465Z,19.50
2022-10-22T13:00:19.232Z,19.40
2022-10-22T13:01:21.262Z,19.50
2022-10-22T13:02:28.993Z,19.40
2022-10-22T13:03:34.604Z,19.40
2022-10-22T13:04:37.988Z,19.40
2022-10-22T13:05:39.823Z,19.20
2022-10-22T13:06:47.268Z,19.30
2022-10-22T13:07:52.524Z,19.20
2022-10-22T13:08:57.325Z,19.20
2022-10-22T13:09:59.828Z,19.10
2022-10-22T13:11:08.331Z,19.10
2022-10-22T13:12:16.259Z,19.10
2022-10-22T13:13:45.539Z,19.10
2022-10-22T13:14:47.326Z,19.10
2022-10-22T13:15:49.027Z,19.10
2022-10-22T13:17:16.818Z,19.20
2022-10-22T13:18:25.083Z,19.20
2022-10-22T13:19:41.135Z,19.20
2022-10-22T13:20:57.441Z,19.10
2022-10-22T13:21:59.169Z,19.10
2022-10-22T13:23:05.737Z,19.10
2022-10-22T13:24:22.484Z,19.10
2022-10-22T13:25:33.436Z,19.10
2022-10-22T13:26:37.323Z,19.10
2022-10-22T13:27:45.053Z,19.10
2022-10-22T13:28:57.464Z,19.20
2022-10-22T13:30:02.851Z,19.20
2022-10-22T13:31:20.071Z,19.20
2022-10-22T13:32:32.078Z,19.10
2022-10-22T13:33:37.181Z,19.10
2022-10-22T13:34:40.025Z,19.00
2022-10-22T13:35:41.716Z,19.00
2022-10-22T13:36:43.483Z,18.90
2022-10-22T13:37:45.169Z,18.90
2022-10-22T13:38:47.358Z,18.80
2022-10-22T13:39:49.062Z,18.80
2022-10-22T13:40:51.515Z,18.80
2022-10-22T13:41:53.277Z,18.70
2022-10-22T13:42:55.003Z,18.60
2022-10-22T13:43:57.016Z,18.60
2022-10-22T13:44:58.690Z,18.60
2022-10-22T13:46:00.526Z,18.60
2022-10-22T13:47:02.279Z,18.60
2022-10-22T13:48:04.154Z,18.60
2022-10-22T13:49:05.999Z,18.60
2022-10-22T13:50:15.259Z,18.60
2022-10-22T13:51:20.227Z,18.60
2022-10-22T13:52:48.603Z,18.60
2022-10-22T13:53:52.523Z,18.60
2022-10-22T13:54:54.218Z,18.50
2022-10-22T13:55:56.234Z,18.50
2022-10-22T13:56:57.919Z,18.50
2022-10-22T13:58:10.493Z,18.50
2022-10-22T13:59:12.263Z,18.50
2022-10-22T14:00:23.963Z,18.60
2022-10-22T14:01:27.522Z,18.60
2022-10-22T14:02:29.356Z,18.60
2022-10-22T14:03:34.017Z,18.60
2022-10-22T14:04:38.294Z,18.60
2022-10-22T14:05:40.055Z,18.60
2022-10-22T14:06:41.775Z,18.60
2022-10-22T14:07:44.380Z,18.60
2022-10-22T14:08:54.378Z,18.50
2022-10-22T14:09:56.214Z,18.50
2022-10-22T14:10:57.976Z,18.40
2022-10-22T14:12:00.365Z,18.40
2022-10-22T14:13:02.043Z,18.30
2022-10-22T14:14:05.013Z,18.30
2022-10-22T14:15:07.379Z,18.20
2022-10-22T14:16:17.373Z,18.10
2022-10-22T14:17:19.230Z,18.00
2022-10-22T14:18:27.377Z,18.00
2022-10-22T14:19:30.415Z,17.90
2022-10-22T14:20:36.418Z,17.90
2022-10-22T14:21:38.353Z,17.80